Time;durP1;ratioP1;P1;durP2;ratioP2;P2;SDS_P1;SDS_P2;PMS_P1;PMS_P2;Temp;Humidity;BMP_temperature;BMP_pressure;BME280_temperature;BME280_humidity;BME280_pressure;Samples;Min_cycle;Max_cycle;Signal;HPM_P1;HPM_P2
2020/12/18 00:02:21;;;;;;;24.80;20.30;;;6.30;99.90;;;;;;5032198;28;20460;-88
2020/12/18 00:04:48;;;;;;;25.60;22.00;;;6.20;99.90;;;;;;5031648;28;20450;-91
2020/12/18 00:07:14;;;;;;;24.13;21.70;;;6.20;99.90;;;;;;5031852;28;20457;-89
2020/12/18 00:09:41;;;;;;;24.43;20.70;;;6.30;99.90;;;;;;5031163;28;20445;-90
2020/12/18 00:12:07;;;;;;;24.87;20.70;;;6.20;99.90;;;;;;5031839;28;20461;-90
2020/12/18 00:14:33;;;;;;;24.00;21.40;;;6.10;99.90;;;;;;5031482;28;20477;-90
2020/12/18 00:16:59;;;;;;;24.07;20.60;;;6.00;99.90;;;;;;5031816;28;20934;-91
2020/12/18 00:19:26;;;;;;;23.50;20.20;;;6.10;99.90;;;;;;5031749;28;20499;-91
2020/12/18 00:21:55;;;;;;;24.17;21.00;;;6.00;99.90;;;;;;5031720;28;20508;-90
2020/12/18 00:24:22;;;;;;;24.77;19.53;;;6.10;99.90;;;;;;5031653;28;20444;-90
2020/12/18 00:26:48;;;;;;;24.20;21.10;;;6.10;99.90;;;;;;5031649;28;20456;-92
2020/12/18 00:29:14;;;;;;;28.43;20.97;;;6.00;99.90;;;;;;5031307;28;21231;-90
2020/12/18 00:31:40;;;;;;;24.27;20.07;;;6.00;99.90;;;;;;5031894;28;20473;-90
2020/12/18 00:34:06;;;;;;;23.03;19.47;;;6.10;99.90;;;;;;5031179;28;20499;-90
2020/12/18 00:36:34;;;;;;;22.90;20.63;;;6.10;99.90;;;;;;5031346;28;20453;-89
2020/12/18 00:39:00;;;;;;;22.63;20.23;;;6.10;99.90;;;;;;5031191;28;20453;-90
2020/12/18 00:41:27;;;;;;;21.00;18.80;;;6.10;99.90;;;;;;5031539;28;20465;-88
2020/12/18 00:43:53;;;;;;;28.50;20.63;;;6.00;99.90;;;;;;5031262;28;20458;-89
2020/12/18 00:46:19;;;;;;;23.83;20.83;;;6.00;99.90;;;;;;5031182;28;20453;-89
2020/12/18 00:48:45;;;;;;;23.30;20.87;;;5.90;99.90;;;;;;5031622;28;20484;-89
2020/12/18 00:51:15;;;;;;;23.57;20.67;;;5.90;99.90;;;;;;5030937;28;20461;-89
2020/12/18 00:53:42;;;;;;;24.30;20.33;;;5.80;99.90;;;;;;5031373;28;20847;-90
2020/12/18 00:56:08;;;;;;;24.73;20.67;;;5.80;99.90;;;;;;5031309;28;20477;-89
2020/12/18 00:58:35;;;;;;;21.67;19.40;;;5.70;99.90;;;;;;5031525;28;20480;-89
2020/12/18 01:01:01;;;;;;;27.07;21.20;;;5.70;99.90;;;;;;5049337;28;20496;-90
2020/12/18 01:03:27;;;;;;;22.17;19.80;;;5.60;99.90;;;;;;5037022;28;20440;-89
2020/12/18 01:05:54;;;;;;;25.00;22.17;;;5.60;99.90;;;;;;5030922;28;20445;-89
2020/12/18 01:08:20;;;;;;;26.70;19.20;;;5.60;99.90;;;;;;5030788;28;20587;-88
2020/12/18 01:10:48;;;;;;;21.47;19.27;;;5.70;99.90;;;;;;5031105;28;20469;-89
2020/12/18 01:13:14;;;;;;;22.23;19.93;;;5.70;99.90;;;;;;5031142;28;20449;-89
2020/12/18 01:15:40;;;;;;;22.97;20.47;;;5.60;99.90;;;;;;5031088;28;20480;-90
2020/12/18 01:18:07;;;;;;;23.93;19.80;;;5.60;99.90;;;;;;5030846;28;20511;-88
2020/12/18 01:20:33;;;;;;;19.13;17.20;;;5.60;99.90;;;;;;5033577;28;20465;-87
2020/12/18 01:23:00;;;;;;;23.17;18.23;;;5.60;99.90;;;;;;5034553;28;20458;-87
2020/12/18 01:25:26;;;;;;;20.43;18.53;;;5.60;99.90;;;;;;5034868;28;20471;-89
2020/12/18 01:27:53;;;;;;;20.83;18.63;;;5.60;99.90;;;;;;5034580;28;20532;-90
2020/12/18 01:30:19;;;;;;;23.63;19.73;;;5.60;99.90;;;;;;5035054;28;20476;-88
2020/12/18 01:32:45;;;;;;;24.20;20.30;;;5.60;99.90;;;;;;5033853;28;20461;-87
2020/12/18 01:35:11;;;;;;;25.43;20.63;;;5.60;99.90;;;;;;5031512;28;20507;-90
2020/12/18 01:37:38;;;;;;;25.47;21.43;;;5.70;99.90;;;;;;5034269;28;20471;-88
2020/12/18 01:40:04;;;;;;;22.73;20.07;;;5.80;99.90;;;;;;5034346;28;20996;-88
2020/12/18 01:42:30;;;;;;;23.80;19.63;;;5.90;99.90;;;;;;5033863;28;20445;-89
2020/12/18 01:44:57;;;;;;;21.90;18.60;;;5.90;99.90;;;;;;5034384;28;20452;-90
2020/12/18 01:47:29;;;;;;;21.87;18.13;;;6.00;99.90;;;;;;5033949;28;20964;-91
2020/12/18 01:49:56;;;;;;;24.13;20.40;;;6.00;99.90;;;;;;5034487;28;20433;-90
2020/12/18 01:52:23;;;;;;;20.83;18.37;;;6.00;99.90;;;;;;5033996;28;21008;-90
2020/12/18 01:54:51;;;;;;;22.27;19.77;;;6.00;99.90;;;;;;5034170;28;20578;-91
2020/12/18 01:57:17;;;;;;;22.83;18.60;;;6.00;99.90;;;;;;5034361;28;20867;-90
2020/12/18 01:59:44;;;;;;;21.50;19.10;;;6.00;99.90;;;;;;5034353;28;20430;-91
2020/12/18 02:02:11;;;;;;;23.50;19.83;;;5.90;99.90;;;;;;5034082;28;20445;-89
2020/12/18 02:04:42;;;;;;;21.43;19.03;;;5.90;99.90;;;;;;5034263;28;20478;-89
2020/12/18 02:07:11;;;;;;;24.33;20.10;;;5.80;99.90;;;;;;5034300;28;20448;-89
2020/12/18 02:09:37;;;;;;;22.20;19.90;;;5.70;99.90;;;;;;5034359;28;20437;-89
2020/12/18 02:12:04;;;;;;;23.47;21.00;;;5.60;99.90;;;;;;5033887;28;20457;-91
2020/12/18 02:14:30;;;;;;;23.90;20.00;;;5.60;99.90;;;;;;5033630;28;20527;-90
2020/12/18 02:16:57;;;;;;;23.60;21.10;;;5.50;99.90;;;;;;5033984;28;21158;-90
2020/12/18 02:19:27;;;;;;;23.13;20.03;;;5.50;99.90;;;;;;5033704;28;20449;-91
2020/12/18 02:21:53;;;;;;;21.90;19.30;;;5.50;99.90;;;;;;5034031;28;20468;-90
2020/12/18 02:24:24;;;;;;;21.73;19.27;;;5.50;99.90;;;;;;5033702;28;20448;-91
2020/12/18 02:26:51;;;;;;;22.90;20.50;;;5.40;99.90;;;;;;5033848;28;20511;-90
2020/12/18 02:29:18;;;;;;;23.57;19.80;;;5.40;99.90;;;;;;5033584;28;20962;-90
2020/12/18 02:31:44;;;;;;;22.90;19.90;;;5.30;99.90;;;;;;5033106;28;20491;-90
2020/12/18 02:34:10;;;;;;;23.50;21.10;;;5.30;99.90;;;;;;5033181;28;20523;-90
2020/12/18 02:36:36;;;;;;;24.60;20.27;;;5.30;99.90;;;;;;5033422;28;20461;-90
2020/12/18 02:39:02;;;;;;;22.87;20.37;;;5.30;99.90;;;;;;5033376;28;20454;-90
2020/12/18 02:41:29;;;;;;;20.80;18.67;;;5.30;99.90;;;;;;5033526;28;20815;-91
2020/12/18 02:43:56;;;;;;;23.50;20.40;;;5.30;99.90;;;;;;5033227;28;21032;-90
2020/12/18 02:46:22;;;;;;;25.83;19.87;;;5.30;99.90;;;;;;5033181;28;20966;-90
2020/12/18 02:48:48;;;;;;;27.60;19.80;;;5.30;99.90;;;;;;5033057;28;20962;-89
2020/12/18 02:51:14;;;;;;;23.50;20.20;;;5.20;99.90;;;;;;5033384;28;20469;-90
2020/12/18 02:53:40;;;;;;;21.63;19.47;;;5.10;99.90;;;;;;5033044;28;20957;-91
2020/12/18 02:56:06;;;;;;;21.60;18.73;;;5.20;99.90;;;;;;5032811;28;20485;-91
2020/12/18 02:58:32;;;;;;;19.20;17.20;;;5.30;99.90;;;;;;5032919;28;20453;-90
2020/12/18 03:01:00;;;;;;;26.17;20.47;;;5.30;99.90;;;;;;5033035;28;20470;-90
2020/12/18 03:03:26;;;;;;;20.73;18.60;;;5.30;99.90;;;;;;5032979;28;20446;-91
2020/12/18 03:05:52;;;;;;;23.90;19.73;;;5.10;99.90;;;;;;5032860;28;20450;-92
2020/12/18 03:08:18;;;;;;;22.80;18.60;;;5.10;99.90;;;;;;5032977;28;20452;-90
2020/12/18 03:10:44;;;;;;;24.30;19.97;;;5.10;99.90;;;;;;5033465;28;20478;-90
2020/12/18 03:13:10;;;;;;;27.37;21.93;;;5.20;99.90;;;;;;5033146;28;20857;-90
2020/12/18 03:15:37;;;;;;;26.73;20.30;;;5.20;99.90;;;;;;5045225;28;20481;-90
2020/12/18 03:18:04;;;;;;;22.10;18.00;;;5.30;99.90;;;;;;5044796;28;21100;-90
2020/12/18 03:20:30;;;;;;;24.63;19.83;;;5.40;99.90;;;;;;5032863;28;20473;-89
2020/12/18 03:22:56;;;;;;;22.17;18.30;;;5.50;99.90;;;;;;5032570;28;20441;-90
2020/12/18 03:25:22;;;;;;;21.70;19.47;;;5.50;99.90;;;;;;5032516;28;20445;-90
2020/12/18 03:27:48;;;;;;;20.87;18.67;;;5.60;99.90;;;;;;5032096;28;20453;-90
2020/12/18 03:30:14;;;;;;;18.73;16.87;;;5.60;99.90;;;;;;5032635;28;20510;-90
2020/12/18 03:32:40;;;;;;;21.43;19.10;;;5.70;99.90;;;;;;5032126;28;20442;-91
2020/12/18 03:35:07;;;;;;;20.40;18.13;;;5.70;99.90;;;;;;5032158;28;20510;-90
2020/12/18 03:37:34;;;;;;;26.17;19.10;;;5.70;99.90;;;;;;5032326;28;20564;-90
2020/12/18 03:40:00;;;;;;;18.60;16.70;;;5.80;99.90;;;;;;5032517;28;20453;-90
2020/12/18 03:42:27;;;;;;;21.47;19.27;;;5.80;99.90;;;;;;5032206;28;20457;-90
2020/12/18 03:44:53;;;;;;;19.60;17.63;;;5.80;99.90;;;;;;5031402;28;20442;-91
2020/12/18 03:47:19;;;;;;;19.57;17.57;;;5.90;99.90;;;;;;5032337;28;20484;-90
2020/12/18 03:49:45;;;;;;;22.10;17.77;;;5.90;99.90;;;;;;5032415;28;20449;-90
2020/12/18 03:52:12;;;;;;;20.10;18.00;;;5.90;99.90;;;;;;5032775;28;20445;-90
2020/12/18 03:54:38;;;;;;;24.43;18.23;;;5.90;99.90;;;;;;5031854;28;20477;-90
2020/12/18 03:57:04;;;;;;;20.23;18.13;;;6.00;99.90;;;;;;5032311;28;20453;-91
2020/12/18 03:59:31;;;;;;;21.23;17.00;;;6.00;99.90;;;;;;5032005;28;20452;-91
2020/12/18 04:01:57;;;;;;;17.70;16.00;;;6.00;99.90;;;;;;5032116;28;20500;-90
2020/12/18 04:04:23;;;;;;;23.63;18.30;;;6.00;99.90;;;;;;5031788;28;20484;-91
2020/12/18 04:06:49;;;;;;;20.00;16.73;;;6.10;99.90;;;;;;5032046;28;20445;-90
2020/12/18 04:09:16;;;;;;;21.13;18.43;;;6.10;99.90;;;;;;5031963;28;20473;-92
2020/12/18 04:11:42;;;;;;;18.97;16.97;;;6.10;99.90;;;;;;5032000;28;20465;-90
2020/12/18 04:14:08;;;;;;;20.07;18.07;;;6.20;99.90;;;;;;5031407;28;20930;-90
2020/12/18 04:16:35;;;;;;;20.80;17.40;;;6.20;99.90;;;;;;5031885;28;20488;-90
2020/12/18 04:19:01;;;;;;;18.50;16.70;;;6.10;99.90;;;;;;5031474;28;20446;-90
2020/12/18 04:21:27;;;;;;;19.10;17.07;;;6.10;99.90;;;;;;5031876;28;20469;-89
2020/12/18 04:23:53;;;;;;;20.40;17.73;;;6.10;99.90;;;;;;5031627;28;20511;-89
2020/12/18 04:26:20;;;;;;;18.97;17.10;;;6.10;99.90;;;;;;5031458;28;20449;-91
2020/12/18 04:28:46;;;;;;;18.30;16.37;;;6.10;99.90;;;;;;5031456;28;20475;-90
2020/12/18 04:31:12;;;;;;;19.33;17.40;;;6.10;99.90;;;;;;5031770;28;20524;-91
2020/12/18 04:33:39;;;;;;;18.73;16.83;;;6.10;99.90;;;;;;5031526;28;20441;-91
2020/12/18 04:36:05;;;;;;;18.47;16.57;;;6.00;99.90;;;;;;5031424;28;20492;-91
2020/12/18 04:38:31;;;;;;;18.67;16.93;;;6.00;99.90;;;;;;5031384;28;20601;-91
2020/12/18 04:40:57;;;;;;;21.10;17.20;;;6.00;99.90;;;;;;5031408;28;20461;-90
2020/12/18 04:43:24;;;;;;;20.20;17.90;;;6.10;99.90;;;;;;5031123;28;20454;-90
2020/12/18 04:45:56;;;;;;;21.57;18.00;;;6.00;99.90;;;;;;5031483;28;20456;-90
2020/12/18 04:48:25;;;;;;;21.50;19.20;;;5.90;99.90;;;;;;5031801;28;20460;-90
2020/12/18 04:50:54;;;;;;;19.67;17.67;;;5.90;99.90;;;;;;5031406;28;20465;-90
2020/12/18 04:53:26;;;;;;;22.67;18.40;;;5.80;99.90;;;;;;5030769;28;20464;-91
2020/12/18 04:55:54;;;;;;;20.60;18.40;;;5.80;99.90;;;;;;5030729;28;20512;-90
2020/12/18 04:58:22;;;;;;;18.30;16.50;;;5.70;99.90;;;;;;5031169;28;20529;-91
2020/12/18 05:00:54;;;;;;;19.17;16.70;;;5.60;99.90;;;;;;5031181;28;20937;-91
2020/12/18 05:03:21;;;;;;;19.57;17.50;;;5.60;99.90;;;;;;5031075;28;20449;-90
2020/12/18 05:05:47;;;;;;;19.03;16.83;;;5.50;99.90;;;;;;5031040;28;20533;-91
2020/12/18 05:08:13;;;;;;;19.00;17.20;;;5.50;99.90;;;;;;5031064;28;20458;-90
2020/12/18 05:10:40;;;;;;;20.30;18.20;;;5.40;99.90;;;;;;5031479;28;20523;-89
2020/12/18 05:13:06;;;;;;;21.17;19.00;;;5.40;99.90;;;;;;5030751;28;20445;-90
2020/12/18 05:15:34;;;;;;;19.60;17.50;;;5.50;99.90;;;;;;5031122;28;20539;-91
2020/12/18 05:18:01;;;;;;;21.67;17.00;;;5.40;99.90;;;;;;5030843;28;20441;-90
2020/12/18 05:20:27;;;;;;;18.37;16.47;;;5.50;99.90;;;;;;5031179;28;20518;-89
2020/12/18 05:22:54;;;;;;;21.30;18.40;;;5.40;99.90;;;;;;5031039;28;20484;-91
2020/12/18 05:25:20;;;;;;;18.80;16.83;;;5.40;99.90;;;;;;5031444;28;20441;-90
2020/12/18 05:27:49;;;;;;;22.83;17.93;;;5.40;99.90;;;;;;5031434;28;20484;-90
2020/12/18 05:30:20;;;;;;;21.23;19.07;;;5.40;99.90;;;;;;5048989;28;20454;-90
2020/12/18 05:32:52;;;;;;;25.50;17.93;;;5.30;99.90;;;;;;5037187;28;20460;-90
2020/12/18 05:35:20;;;;;;;20.53;17.70;;;5.40;99.90;;;;;;5030178;28;20559;-89
2020/12/18 05:37:46;;;;;;;18.83;16.27;;;5.40;99.90;;;;;;5030519;28;20456;-91
2020/12/18 05:40:12;;;;;;;19.80;17.70;;;5.40;99.90;;;;;;5030735;28;20477;-91
2020/12/18 05:42:42;;;;;;;20.10;18.10;;;5.30;99.90;;;;;;5031066;28;20461;-91
2020/12/18 05:45:14;;;;;;;19.53;17.50;;;5.40;99.90;;;;;;5030663;28;20452;-90
2020/12/18 05:47:58;;;;;;;18.40;16.40;;;5.40;99.90;;;;;;5030813;28;20449;-91
2020/12/18 05:50:29;;;;;;;19.03;17.13;;;5.40;99.90;;;;;;5030926;28;20556;-91
2020/12/18 05:52:57;;;;;;;20.10;15.10;;;5.40;99.90;;;;;;5030899;28;20540;-90
2020/12/18 05:55:24;;;;;;;21.47;15.87;;;5.40;99.90;;;;;;5030513;28;21040;-89
2020/12/18 05:57:52;;;;;;;16.17;14.37;;;5.30;99.90;;;;;;5030668;28;21003;-91
2020/12/18 06:00:18;;;;;;;15.37;13.67;;;5.30;99.90;;;;;;5030790;28;20469;-91
2020/12/18 06:02:46;;;;;;;17.53;15.70;;;5.30;99.90;;;;;;5030795;28;20449;-91
2020/12/18 06:05:12;;;;;;;15.87;14.20;;;5.30;99.90;;;;;;5030307;28;20446;-90
2020/12/18 06:07:40;;;;;;;14.70;13.27;;;5.20;99.90;;;;;;5032926;28;20496;-91
2020/12/18 06:10:06;;;;;;;17.00;15.23;;;5.20;99.90;;;;;;5034309;28;20848;-91
2020/12/18 06:12:33;;;;;;;15.57;14.17;;;5.20;99.90;;;;;;5034272;28;20456;-90
2020/12/18 06:15:01;;;;;;;17.20;15.40;;;5.20;99.90;;;;;;5033869;28;20890;-91
2020/12/18 06:17:28;;;;;;;15.77;14.13;;;5.30;99.90;;;;;;5034124;28;20445;-91
2020/12/18 06:19:57;;;;;;;19.20;15.90;;;5.20;99.90;;;;;;5034022;28;20449;-92
2020/12/18 06:22:24;;;;;;;16.70;14.57;;;5.20;99.90;;;;;;5033571;28;20449;-90
2020/12/18 06:24:51;;;;;;;17.30;15.60;;;5.10;99.90;;;;;;5013959;28;20500;-90
2020/12/18 06:27:18;;;;;;;17.87;14.53;;;5.20;99.90;;;;;;5017141;28;20461;-90
2020/12/18 06:29:45;;;;;;;19.07;16.47;;;5.10;99.90;;;;;;5033886;28;21026;-91
2020/12/18 06:32:22;;;;;;;17.33;15.57;;;5.20;99.90;;;;;;5033758;28;20456;-89
2020/12/18 06:34:49;;;;;;;22.93;18.00;;;5.20;99.90;;;;;;5033351;28;20542;-90
2020/12/18 06:37:29;;;;;;;19.87;15.90;;;5.20;99.90;;;;;;5033358;28;20873;-90
2020/12/18 06:39:56;;;;;;;19.90;16.63;;;5.30;99.90;;;;;;5033555;28;20453;-90
2020/12/18 06:42:24;;;;;;;17.50;15.70;;;5.20;99.90;;;;;;5033371;28;20449;-91
2020/12/18 06:44:51;;;;;;;20.47;15.90;;;5.20;99.90;;;;;;5033511;28;20942;-90
2020/12/18 06:47:20;;;;;;;19.73;15.70;;;5.30;99.90;;;;;;5033564;28;20453;-90
2020/12/18 06:50:08;;;;;;;20.40;15.90;;;5.30;99.90;;;;;;5033618;28;20536;-90
2020/12/18 06:52:45;;;;;;;19.47;16.17;;;5.40;99.90;;;;;;5033209;28;20457;-91
2020/12/18 06:55:15;;;;;;;18.07;16.27;;;5.40;99.90;;;;;;5033246;28;20493;-91
2020/12/18 06:57:41;;;;;;;19.60;17.17;;;5.40;99.90;;;;;;5033229;28;20507;-91
2020/12/18 07:00:27;;;;;;;19.00;16.73;;;5.50;99.90;;;;;;5033555;28;20469;-90
2020/12/18 07:02:53;;;;;;;19.47;16.10;;;5.50;99.90;;;;;;5033064;28;20456;-89
2020/12/18 07:05:34;;;;;;;19.43;17.30;;;5.60;99.90;;;;;;5034545;28;20480;-91
2020/12/18 07:08:03;;;;;;;18.90;16.00;;;5.70;99.90;;;;;;5032876;28;20449;-90
2020/12/18 07:10:31;;;;;;;20.50;18.03;;;5.80;99.90;;;;;;5033354;28;20472;-90
2020/12/18 07:12:59;;;;;;;23.20;18.03;;;5.80;99.90;;;;;;5032749;28;20464;-90
2020/12/18 07:15:43;;;;;;;22.20;18.10;;;5.90;99.90;;;;;;5032773;28;20481;-91
2020/12/18 07:18:13;;;;;;;19.70;17.60;;;5.90;99.90;;;;;;5032702;28;20445;-90
2020/12/18 07:20:44;;;;;;;22.30;18.50;;;5.90;99.90;;;;;;5033063;28;20465;-90
2020/12/18 07:23:10;;;;;;;21.00;16.90;;;6.00;99.90;;;;;;5032775;28;20452;-90
2020/12/18 07:25:37;;;;;;;21.50;17.70;;;6.00;99.90;;;;;;5032559;28;20445;-90
2020/12/18 07:28:04;;;;;;;20.60;17.23;;;6.10;99.90;;;;;;5032462;28;20453;-91
2020/12/18 07:30:31;;;;;;;21.87;17.10;;;6.10;99.90;;;;;;5033075;28;20477;-92
2020/12/18 07:32:57;;;;;;;29.33;17.50;;;6.20;99.90;;;;;;5032370;28;20449;-90
2020/12/18 07:35:23;;;;;;;19.23;17.13;;;6.20;99.90;;;;;;5032525;28;20485;-90
2020/12/18 07:37:50;;;;;;;17.70;15.93;;;6.20;99.90;;;;;;5032401;28;20453;-92
2020/12/18 07:40:16;;;;;;;20.80;15.47;;;6.20;99.90;;;;;;5033435;28;20468;-91
2020/12/18 07:42:43;;;;;;;24.43;16.73;;;6.30;99.90;;;;;;5032514;28;20445;-91
2020/12/18 07:45:10;;;;;;;17.83;16.03;;;6.30;99.90;;;;;;5049521;28;20437;-91
2020/12/18 07:47:37;;;;;;;20.50;16.07;;;6.40;99.90;;;;;;5038397;28;20454;-91
2020/12/18 07:50:06;;;;;;;17.67;15.47;;;6.40;99.90;;;;;;5032374;28;20473;-91
2020/12/18 07:52:34;;;;;;;16.57;14.90;;;6.50;99.90;;;;;;5032875;28;20456;-91
2020/12/18 07:55:01;;;;;;;18.70;15.83;;;6.50;99.90;;;;;;5032372;28;20505;-92
2020/12/18 07:57:28;;;;;;;19.07;17.17;;;6.60;99.90;;;;;;5029542;28;20456;-91
2020/12/18 08:00:09;;;;;;;19.33;16.30;;;6.60;99.90;;;;;;5031072;28;20532;-92
2020/12/18 08:02:35;;;;;;;19.63;16.87;;;6.70;99.90;;;;;;5030565;28;20453;-89
2020/12/18 08:05:01;;;;;;;19.93;17.77;;;6.80;99.90;;;;;;5030984;28;20450;-90
2020/12/18 08:07:31;;;;;;;20.47;18.27;;;6.90;99.90;;;;;;5031701;28;20460;-90
2020/12/18 08:10:00;;;;;;;18.53;16.10;;;7.00;99.90;;;;;;5031479;28;20449;-90
2020/12/18 08:12:28;;;;;;;23.47;17.30;;;7.10;99.90;;;;;;5031607;28;20457;-91
2020/12/18 08:15:08;;;;;;;20.07;17.87;;;7.00;99.90;;;;;;5031225;28;20959;-90
2020/12/18 08:17:35;;;;;;;18.00;15.67;;;7.10;99.90;;;;;;5031611;28;20526;-91
2020/12/18 08:20:02;;;;;;;19.10;17.30;;;7.20;99.90;;;;;;5031134;28;20524;-89
2020/12/18 08:22:33;;;;;;;21.17;16.87;;;7.20;99.90;;;;;;5031585;28;21136;-90
2020/12/18 08:25:02;;;;;;;18.73;16.57;;;7.30;99.90;;;;;;5031090;28;20450;-89
2020/12/18 08:27:34;;;;;;;26.40;16.30;;;7.40;99.90;;;;;;5031478;28;20449;-89
2020/12/18 08:30:02;;;;;;;17.57;15.83;;;7.40;99.90;;;;;;5031172;28;20520;-89
2020/12/18 08:32:31;;;;;;;21.00;17.00;;;7.40;99.90;;;;;;5031271;28;20821;-90
2020/12/18 08:34:59;;;;;;;19.90;16.57;;;7.40;99.90;;;;;;5031204;28;20441;-89
2020/12/18 08:37:26;;;;;;;25.43;18.97;;;7.50;99.90;;;;;;5031266;28;20474;-90
2020/12/18 08:39:52;;;;;;;18.03;15.70;;;7.60;99.90;;;;;;5031439;28;20445;-90
2020/12/18 08:42:18;;;;;;;20.83;16.70;;;7.60;99.90;;;;;;5031045;28;20830;-89
2020/12/18 08:44:46;;;;;;;24.60;15.50;;;7.60;99.90;;;;;;5031123;28;20433;-89
2020/12/18 08:47:20;;;;;;;20.80;16.97;;;7.50;99.90;;;;;;5031326;28;20448;-90
2020/12/18 08:49:48;;;;;;;20.50;16.60;;;7.60;99.90;;;;;;5031441;28;20548;-90
2020/12/18 08:52:14;;;;;;;17.63;14.03;;;7.70;99.90;;;;;;5030025;28;20461;-90
2020/12/18 08:54:42;;;;;;;23.00;16.90;;;7.80;99.90;;;;;;5031159;28;20450;-92
2020/12/18 08:57:11;;;;;;;19.50;15.77;;;7.70;99.90;;;;;;5031239;28;20492;-91
2020/12/18 08:59:38;;;;;;;19.90;15.50;;;7.80;99.90;;;;;;5031437;28;20445;-91
2020/12/18 09:02:04;;;;;;;19.83;16.50;;;7.70;99.90;;;;;;5031914;28;20472;-91
2020/12/18 09:04:31;;;;;;;21.73;17.20;;;7.70;99.90;;;;;;5031162;28;20523;-91
2020/12/18 09:06:58;;;;;;;20.10;16.57;;;7.80;99.90;;;;;;5031283;28;20997;-90
2020/12/18 09:09:24;;;;;;;23.23;17.83;;;7.90;99.90;;;;;;5031557;28;20526;-91
2020/12/18 09:11:50;;;;;;;20.97;17.13;;;7.90;99.90;;;;;;5031500;28;20477;-92
2020/12/18 09:14:26;;;;;;;19.27;16.60;;;8.00;99.90;;;;;;5030951;28;20445;-91
2020/12/18 09:16:56;;;;;;;18.80;15.03;;;8.10;99.90;;;;;;5029515;28;20472;-89
2020/12/18 09:19:22;;;;;;;17.17;15.37;;;8.20;99.90;;;;;;5030327;28;20445;-90
2020/12/18 09:21:48;;;;;;;19.97;15.57;;;8.30;99.90;;;;;;5031071;28;20472;-90
2020/12/18 09:24:19;;;;;;;22.60;17.00;;;8.30;99.90;;;;;;5030379;28;20449;-90
2020/12/18 09:26:45;;;;;;;17.37;15.50;;;8.30;99.90;;;;;;5030632;28;20468;-86
2020/12/18 09:29:15;;;;;;;14.83;13.47;;;8.50;99.90;;;;;;5029596;28;20469;-86
2020/12/18 09:31:42;;;;;;;17.03;15.23;;;8.70;99.90;;;;;;5030412;28;20561;-85
2020/12/18 09:34:14;;;;;;;16.97;14.97;;;8.80;99.90;;;;;;5025438;28;20464;-91
2020/12/18 09:36:41;;;;;;;18.10;15.93;;;8.80;99.90;;;;;;5028384;28;20477;-90
2020/12/18 09:39:07;;;;;;;15.83;14.20;;;8.80;99.90;;;;;;5028078;28;20434;-91
2020/12/18 09:41:34;;;;;;;25.47;19.37;;;8.70;99.90;;;;;;5030021;28;20469;-90
2020/12/18 09:44:00;;;;;;;24.77;19.20;;;8.90;99.90;;;;;;5034268;28;20445;-89
2020/12/18 09:46:33;;;;;;;17.00;15.10;;;9.10;99.90;;;;;;5034660;28;20448;-93
2020/12/18 09:48:59;;;;;;;17.73;15.93;;;9.40;99.90;;;;;;5034250;28;20449;-91
2020/12/18 09:51:25;;;;;;;15.70;14.00;;;9.90;99.90;;;;;;5033693;28;20468;-90
2020/12/18 09:53:51;;;;;;;14.80;13.40;;;10.40;99.90;;;;;;5038122;28;20445;-92
2020/12/18 09:56:17;;;;;;;16.20;14.80;;;10.70;99.90;;;;;;5044345;28;20823;-92
2020/12/18 09:58:44;;;;;;;17.90;14.30;;;11.00;99.90;;;;;;5051687;28;20434;-92
2020/12/18 10:01:15;;;;;;;21.57;15.60;;;11.20;99.90;;;;;;5051961;28;20823;-92
2020/12/18 10:03:41;;;;;;;15.87;14.20;;;11.60;99.90;;;;;;5034616;28;20449;-91
2020/12/18 10:06:07;;;;;;;16.60;14.30;;;12.30;99.90;;;;;;5033770;28;20506;-92
2020/12/18 10:08:34;;;;;;;16.57;13.70;;;12.50;99.90;;;;;;5034816;28;20453;-92
2020/12/18 10:11:00;;;;;;;15.87;14.40;;;13.20;99.90;;;;;;5034475;28;20876;-90
2020/12/18 10:13:26;;;;;;;14.57;13.07;;;14.50;99.90;;;;;;5034560;28;20572;-93
2020/12/18 10:15:53;;;;;;;16.93;13.13;;;15.00;98.90;;;;;;5033664;28;20549;-92
2020/12/18 10:18:20;;;;;;;16.63;15.00;;;15.00;98.30;;;;;;5034230;28;20992;-92
2020/12/18 10:20:46;;;;;;;16.50;13.50;;;15.50;97.40;;;;;;5034296;28;20471;-92
2020/12/18 10:23:12;;;;;;;17.47;13.30;;;15.70;97.20;;;;;;5034464;28;20441;-93
2020/12/18 10:25:38;;;;;;;15.30;13.70;;;16.60;95.90;;;;;;5033567;28;20502;-92
2020/12/18 10:28:04;;;;;;;14.03;12.37;;;18.10;94.40;;;;;;5033613;28;20466;-92
2020/12/18 10:30:30;;;;;;;12.77;11.50;;;18.10;92.00;;;;;;5033828;28;20471;-93
2020/12/18 10:33:00;;;;;;;14.23;12.77;;;18.70;91.30;;;;;;5033803;28;20438;-93
2020/12/18 10:35:26;;;;;;;14.00;12.70;;;18.90;90.40;;;;;;5033845;28;20471;-94
2020/12/18 10:37:54;;;;;;;12.40;11.30;;;19.00;89.60;;;;;;5033507;28;20456;-93
2020/12/18 10:40:20;;;;;;;14.00;12.13;;;19.90;88.40;;;;;;5033781;28;20541;-90
2020/12/18 10:42:48;;;;;;;11.73;10.53;;;21.00;85.70;;;;;;5033230;28;20453;-91
2020/12/18 10:45:14;;;;;;;13.47;12.37;;;20.60;81.60;;;;;;5032864;28;20541;-92
2020/12/18 10:47:40;;;;;;;12.63;11.37;;;21.30;82.40;;;;;;5033027;28;21027;-92
2020/12/18 10:50:07;;;;;;;12.60;11.07;;;22.60;79.40;;;;;;5030228;28;20487;-91
2020/12/18 10:52:33;;;;;;;12.80;11.57;;;23.40;75.20;;;;;;5032478;28;20990;-87
2020/12/18 10:54:59;;;;;;;12.83;11.60;;;23.70;72.40;;;;;;5032279;28;20447;-92
2020/12/18 10:57:25;;;;;;;13.23;12.13;;;24.50;69.10;;;;;;5032766;28;20457;-92
2020/12/18 10:59:52;;;;;;;12.80;11.80;;;25.00;67.20;;;;;;5031755;28;20502;-92
2020/12/18 11:02:18;;;;;;;12.43;11.33;;;24.50;62.90;;;;;;5032121;28;20450;-92
2020/12/18 11:04:44;;;;;;;16.47;12.20;;;23.60;65.90;;;;;;5032687;28;20966;-92
2020/12/18 11:07:11;;;;;;;11.50;10.53;;;23.40;66.20;;;;;;5036704;28;20456;-92
2020/12/18 11:09:37;;;;;;;11.27;10.33;;;22.40;66.80;;;;;;5033583;28;20447;-92
2020/12/18 11:12:04;;;;;;;11.90;10.33;;;21.80;70.00;;;;;;5033780;28;20471;-92
2020/12/18 11:14:30;;;;;;;11.57;10.20;;;22.30;70.00;;;;;;5033028;28;20977;-92
2020/12/18 11:16:56;;;;;;;12.83;10.63;;;22.40;69.00;;;;;;5032790;28;20499;-93
2020/12/18 11:19:22;;;;;;;10.60;9.50;;;23.40;67.60;;;;;;5033710;28;20449;-89
2020/12/18 11:21:49;;;;;;;10.67;9.87;;;24.00;65.80;;;;;;5033535;28;20477;-92
2020/12/18 11:24:16;;;;;;;10.63;9.80;;;23.80;63.10;;;;;;5033000;28;20454;-93
2020/12/18 11:26:42;;;;;;;10.53;9.63;;;24.10;62.90;;;;;;5033072;28;20439;-92
2020/12/18 11:29:09;;;;;;;11.90;10.90;;;23.90;63.80;;;;;;5032769;28;20458;-93
2020/12/18 11:31:39;;;;;;;11.20;10.20;;;23.20;64.10;;;;;;5033021;28;21000;-94
2020/12/18 11:34:05;;;;;;;11.10;10.10;;;23.30;64.90;;;;;;5033236;28;20465;-93
2020/12/18 11:36:34;;;;;;;12.00;10.87;;;23.10;64.80;;;;;;5032713;28;20485;-93
2020/12/18 11:39:00;;;;;;;11.00;9.90;;;23.00;64.80;;;;;;5032456;28;20576;-93
2020/12/18 11:41:27;;;;;;;11.47;10.43;;;22.90;65.60;;;;;;5032478;28;20995;-93
2020/12/18 11:43:53;;;;;;;10.83;9.83;;;23.30;63.40;;;;;;5034297;28;20460;-91
2020/12/18 11:46:19;;;;;;;14.87;11.73;;;23.00;64.80;;;;;;5034109;28;21020;-91
2020/12/18 11:48:46;;;;;;;10.97;10.10;;;24.20;63.80;;;;;;5032992;28;21164;-92
2020/12/18 11:51:13;;;;;;;13.60;11.20;;;24.40;60.00;;;;;;5031588;28;20467;-92
2020/12/18 11:53:39;;;;;;;10.30;9.40;;;25.10;61.20;;;;;;5032772;28;20517;-93
2020/12/18 11:56:05;;;;;;;10.50;9.43;;;26.70;58.10;;;;;;5031797;28;20523;-92
2020/12/18 11:58:32;;;;;;;10.70;9.90;;;27.50;57.30;;;;;;5032986;28;20515;-92
2020/12/18 12:00:59;;;;;;;10.53;9.30;;;26.80;56.30;;;;;;5032341;28;21009;-92
2020/12/18 12:03:25;;;;;;;11.07;10.07;;;25.90;56.50;;;;;;5033510;28;20457;-92
2020/12/18 12:05:52;;;;;;;11.40;10.30;;;25.50;57.50;;;;;;5031263;28;20539;-92
2020/12/18 12:08:19;;;;;;;11.87;10.80;;;25.60;57.40;;;;;;5032519;28;20465;-91
2020/12/18 12:10:45;;;;;;;11.57;10.40;;;25.50;57.20;;;;;;5031514;28;20476;-89
2020/12/18 12:13:11;;;;;;;10.93;10.03;;;24.80;57.90;;;;;;5012783;28;20451;-90
2020/12/18 12:15:38;;;;;;;12.00;10.70;;;25.10;58.60;;;;;;5013370;28;20484;-90
2020/12/18 12:18:04;;;;;;;11.23;10.13;;;25.30;56.80;;;;;;5033511;28;20509;-90
2020/12/18 12:20:31;;;;;;;12.33;11.10;;;24.90;57.80;;;;;;5046092;28;20467;-90
2020/12/18 12:22:57;;;;;;;12.63;10.07;;;24.90;57.90;;;;;;5033987;28;20513;-90
2020/12/18 12:25:23;;;;;;;11.50;10.27;;;25.20;58.40;;;;;;5032224;28;20443;-90
2020/12/18 12:27:49;;;;;;;12.30;9.43;;;24.70;58.00;;;;;;5031249;28;20456;-90
2020/12/18 12:30:15;;;;;;;13.17;11.33;;;24.20;59.10;;;;;;5031404;28;20527;-90
2020/12/18 12:32:42;;;;;;;12.67;10.47;;;23.80;59.40;;;;;;5031130;28;20438;-90
2020/12/18 12:35:09;;;;;;;11.43;10.40;;;22.80;60.40;;;;;;5031024;28;20935;-90
2020/12/18 12:37:35;;;;;;;11.97;9.90;;;21.90;62.80;;;;;;5031307;28;20457;-90